createdAt,value
2019-03-11T00:00:49.441Z,99289.69
2019-03-11T00:04:55.275Z,99294.64
2019-03-11T00:09:01.162Z,99317.58
2019-03-11T00:13:06.059Z,99350.54
2019-03-11T00:17:13.553Z,99348.39
2019-03-11T00:21:21.321Z,99381.78
2019-03-11T00:25:30.132Z,99387.53
2019-03-11T00:29:37.543Z,99403.38
2019-03-11T00:33:43.899Z,99421.89
2019-03-11T00:37:50.002Z,99442.98
2019-03-11T00:42:05.569Z,99503.20
2019-03-11T00:46:11.767Z,99503.20
2019-03-11T00:50:18.640Z,99504.98
2019-03-11T00:54:24.472Z,99483.04
2019-03-11T00:58:28.722Z,99495.81
2019-03-11T01:02:32.963Z,99482.65
2019-03-11T01:06:38.089Z,99512.53
2019-03-11T01:10:43.318Z,99519.16
2019-03-11T01:14:48.003Z,99529.27
2019-03-11T01:18:52.226Z,99530.58
2019-03-11T01:22:56.528Z,99524.44
2019-03-11T01:27:00.681Z,99527.52
2019-03-11T01:31:04.912Z,99530.19
2019-03-11T01:35:10.855Z,99549.89
2019-03-11T01:39:18.392Z,99541.13
2019-03-11T01:43:22.917Z,99560.45
2019-03-11T01:47:29.218Z,99562.64
2019-03-11T01:51:37.221Z,99580.63
2019-03-11T01:55:42.008Z,99574.03
2019-03-11T01:59:48.940Z,99574.47
2019-03-11T02:03:54.413Z,99584.47
2019-03-11T02:08:00.438Z,99573.50
2019-03-11T02:12:06.695Z,99586.64
2019-03-11T02:16:10.882Z,99588.83
2019-03-11T02:20:15.988Z,99588.79
2019-03-11T02:24:21.373Z,99579.59
2019-03-11T02:28:26.463Z,99593.56
2019-03-11T02:32:42.385Z,99584.80
2019-03-11T02:36:47.925Z,99611.48
2019-03-11T02:40:52.143Z,99603.14
2019-03-11T02:44:57.011Z,99626.78
2019-03-11T02:49:02.046Z,99619.31
2019-03-11T02:53:06.758Z,99627.63
2019-03-11T02:57:12.356Z,99628.03
2019-03-11T03:01:34.781Z,99627.14
2019-03-11T03:05:44.687Z,99637.21
2019-03-11T03:09:49.988Z,99655.09
2019-03-11T03:13:54.343Z,99648.94
2019-03-11T03:17:59.733Z,99647.62
2019-03-11T03:22:03.938Z,99653.72
2019-03-11T03:26:09.985Z,99655.89
2019-03-11T03:30:16.490Z,99650.16
2019-03-11T03:34:21.999Z,99682.03
2019-03-11T03:38:31.020Z,99668.88
2019-03-11T03:42:34.932Z,99681.08
2019-03-11T03:46:42.236Z,99700.71
2019-03-11T03:50:47.680Z,99690.63
2019-03-11T03:54:52.301Z,99694.09
2019-03-11T03:58:56.516Z,99705.88
2019-03-11T04:03:00.895Z,99728.14
2019-03-11T04:07:05.279Z,99735.48
2019-03-11T04:11:09.532Z,99745.02
2019-03-11T04:15:14.432Z,99764.57
2019-03-11T04:19:22.685Z,99776.36
2019-03-11T04:23:27.146Z,99783.66
2019-03-11T04:27:31.371Z,99783.12
2019-03-11T04:31:36.450Z,99783.41
2019-03-11T04:35:40.667Z,99777.64
2019-03-11T04:39:44.876Z,99790.24
2019-03-11T04:43:49.098Z,99790.22
2019-03-11T04:47:53.372Z,99796.75
2019-03-11T04:51:57.639Z,99797.98
2019-03-11T04:56:01.963Z,99800.58
2019-03-11T05:00:06.912Z,99804.97
2019-03-11T05:04:11.101Z,99797.06
2019-03-11T05:08:15.523Z,99804.05
2019-03-11T05:12:20.770Z,99814.94
2019-03-11T05:16:25.423Z,99819.72
2019-03-11T05:20:30.013Z,99829.38
2019-03-11T05:24:34.533Z,99825.45
2019-03-11T05:28:38.802Z,99833.75
2019-03-11T05:32:44.091Z,99828.02
2019-03-11T05:36:48.489Z,99820.93
2019-03-11T05:40:55.203Z,99822.27
2019-03-11T05:45:00.437Z,99836.16
2019-03-11T05:49:05.979Z,99833.92
2019-03-11T05:53:10.129Z,99836.10
2019-03-11T05:57:15.128Z,99829.52
2019-03-11T06:01:19.428Z,99826.00
2019-03-11T06:05:25.764Z,99819.81
2019-03-11T06:09:30.002Z,99829.80
2019-03-11T06:13:36.206Z,99838.06
2019-03-11T06:17:40.901Z,99846.73
2019-03-11T06:21:54.091Z,99854.54
2019-03-11T06:25:58.396Z,99873.78
2019-03-11T06:30:02.547Z,99878.14
2019-03-11T06:34:07.012Z,99886.94
2019-03-11T06:38:11.191Z,99881.69
2019-03-11T06:42:15.434Z,99886.95
2019-03-11T06:46:19.604Z,99896.66
2019-03-11T06:50:26.375Z,99890.14
2019-03-11T06:54:31.931Z,99900.27
2019-03-11T06:58:38.448Z,99899.04
2019-03-11T07:02:43.652Z,99892.55
2019-03-11T07:06:48.630Z,99895.25
2019-03-11T07:10:52.925Z,99910.21
2019-03-11T07:14:58.193Z,99902.43
2019-03-11T07:19:03.307Z,99918.70
2019-03-11T07:23:08.137Z,99914.01
2019-03-11T07:27:12.278Z,99908.87
2019-03-11T07:31:17.955Z,99902.88
2019-03-11T07:35:22.450Z,99904.34
2019-03-11T07:39:27.117Z,99891.41
2019-03-11T07:43:31.357Z,99886.73
2019-03-11T07:47:37.518Z,99882.42
2019-03-11T07:51:43.134Z,99876.81
2019-03-11T07:55:48.803Z,99868.05
2019-03-11T07:59:53.349Z,99860.77
2019-03-11T08:03:58.079Z,99848.22
2019-03-11T08:08:02.363Z,99851.84
2019-03-11T08:12:06.690Z,99850.09
2019-03-11T08:16:11.281Z,99846.67
2019-03-11T08:20:15.601Z,99834.86
2019-03-11T08:24:19.810Z,99820.05
2019-03-11T08:28:25.556Z,99811.75
2019-03-11T08:32:31.244Z,99800.87
2019-03-11T08:36:36.830Z,99784.24
2019-03-11T08:40:42.960Z,99783.39
2019-03-11T08:44:46.976Z,99783.42
2019-03-11T08:48:51.177Z,99773.34
2019-03-11T08:52:55.391Z,99764.21
2019-03-11T08:56:59.552Z,99769.46
2019-03-11T09:01:03.819Z,99766.01
2019-03-11T09:05:09.226Z,99754.19
2019-03-11T09:09:14.528Z,99745.45
2019-03-11T09:13:19.371Z,99723.10
2019-03-11T09:17:24.208Z,99744.08
2019-03-11T09:21:30.923Z,99752.36
2019-03-11T09:25:37.151Z,99726.42
2019-03-11T09:29:41.705Z,99728.98
2019-03-11T09:33:46.220Z,99724.59
2019-03-11T09:37:50.399Z,99718.45
2019-03-11T09:41:54.648Z,99713.20
2019-03-11T09:45:58.833Z,99710.55
2019-03-11T09:50:03.032Z,99707.51
2019-03-11T09:54:07.235Z,99695.25
2019-03-11T09:58:11.416Z,99682.19
2019-03-11T10:02:15.702Z,99673.47
2019-03-11T10:06:19.942Z,99660.00
2019-03-11T10:10:24.488Z,99681.06
2019-03-11T10:14:28.719Z,99663.59
2019-03-11T10:18:32.928Z,99658.33
2019-03-11T10:22:38.405Z,99654.00
2019-03-11T10:26:42.641Z,99649.61
2019-03-11T10:30:47.695Z,99643.02
2019-03-11T10:34:53.001Z,99642.59
2019-03-11T10:38:57.234Z,99629.94
2019-03-11T10:43:02.794Z,99626.89
2019-03-11T10:47:08.495Z,99615.55
2019-03-11T10:51:13.256Z,99615.56
2019-03-11T10:55:20.337Z,99606.44
2019-03-11T10:59:26.538Z,99589.81
2019-03-11T11:03:31.210Z,99584.99
2019-03-11T11:07:36.060Z,99565.70
2019-03-11T11:11:40.364Z,99553.41
2019-03-11T11:15:44.610Z,99546.39
2019-03-11T11:19:49.032Z,99527.13
2019-03-11T11:23:53.320Z,99550.77
2019-03-11T11:27:57.615Z,99555.55
2019-03-11T11:32:01.832Z,99543.69
2019-03-11T11:36:06.057Z,99548.94
2019-03-11T11:40:12.845Z,99566.86
2019-03-11T11:44:17.047Z,99590.05
2019-03-11T11:48:21.269Z,99641.56
2019-03-11T11:52:25.497Z,99659.29
2019-03-11T11:56:29.698Z,99671.73
2019-03-11T12:00:34.615Z,99670.95
2019-03-11T12:04:38.862Z,99648.84
2019-03-11T12:08:43.043Z,99640.88
2019-03-11T12:12:47.377Z,99667.08
2019-03-11T12:16:51.580Z,99680.66
2019-03-11T12:20:55.895Z,99685.33
2019-03-11T12:25:00.822Z,99679.44
2019-03-11T12:29:05.879Z,99686.36
2019-03-11T12:33:10.762Z,99695.06
2019-03-11T12:37:15.119Z,99715.08
2019-03-11T12:41:19.314Z,99704.48
2019-03-11T12:45:23.602Z,99730.93
2019-03-11T12:49:30.263Z,99764.09
2019-03-11T12:53:36.188Z,99720.02
2019-03-11T12:57:40.983Z,99710.24
2019-03-11T13:01:45.499Z,99710.62
2019-03-11T13:05:49.930Z,99682.42
2019-03-11T13:09:54.139Z,99692.62
2019-03-11T13:13:58.331Z,99698.84
2019-03-11T13:18:33.166Z,99696.83
2019-03-11T13:22:37.483Z,99708.36
2019-03-11T13:26:41.697Z,99703.18
2019-03-11T13:30:45.865Z,99721.06
2019-03-11T13:34:50.078Z,99712.80
2019-03-11T13:38:54.400Z,99719.81
2019-03-11T13:42:58.632Z,99721.45
2019-03-11T13:47:02.843Z,99725.81
2019-03-11T13:51:08.583Z,99710.10
2019-03-11T13:55:14.586Z,99715.72
2019-03-11T13:59:19.669Z,99706.94
2019-03-11T14:03:23.996Z,99709.16
2019-03-11T14:07:28.197Z,99706.92
2019-03-11T14:11:32.414Z,99724.86
2019-03-11T14:15:37.711Z,99717.83
2019-03-11T14:19:41.952Z,99722.97
2019-03-11T14:23:47.529Z,99732.55
2019-03-11T14:27:51.642Z,99725.59
2019-03-11T14:31:55.903Z,99717.39
2019-03-11T14:36:00.191Z,99727.83
2019-03-11T14:40:05.201Z,99738.30
2019-03-11T14:44:10.666Z,99749.52
2019-03-11T14:48:16.899Z,99758.28
2019-03-11T14:52:30.754Z,99748.63
2019-03-11T14:56:35.359Z,99751.77
2019-03-11T15:00:40.003Z,99737.23
2019-03-11T15:04:45.107Z,99746.41
2019-03-11T15:08:49.277Z,99739.49
2019-03-11T15:12:55.424Z,99729.98
2019-03-11T15:17:00.457Z,99742.26
2019-03-11T15:21:04.723Z,99744.84
2019-03-11T15:25:11.263Z,99754.84
2019-03-11T15:29:15.877Z,99741.70
2019-03-11T15:33:20.450Z,99726.67
2019-03-11T15:37:24.699Z,99733.47
2019-03-11T15:41:31.213Z,99743.38
2019-03-11T15:45:38.868Z,99733.26
2019-03-11T15:49:43.128Z,99732.73
2019-03-11T15:53:48.973Z,99744.53
2019-03-11T15:57:53.143Z,99750.20
2019-03-11T16:01:59.858Z,99760.62
2019-03-11T16:06:09.039Z,99762.71
2019-03-11T16:10:17.065Z,99764.76
2019-03-11T16:14:22.652Z,99780.34
2019-03-11T16:18:27.522Z,99788.59
2019-03-11T16:22:33.088Z,99791.58
2019-03-11T16:26:41.503Z,99798.19
2019-03-11T16:30:47.182Z,99796.98
2019-03-11T16:34:53.877Z,99805.02
2019-03-11T16:38:58.188Z,99820.72
2019-03-11T16:43:20.696Z,99825.48
2019-03-11T16:47:28.349Z,99839.77
2019-03-11T16:51:34.082Z,99854.07
2019-03-11T16:55:40.701Z,99860.03
2019-03-11T16:59:45.246Z,99862.28
2019-03-11T17:03:54.372Z,99860.98
2019-03-11T17:08:00.240Z,99874.88
2019-03-11T17:12:06.788Z,99869.58
2019-03-11T17:16:10.959Z,99880.00
2019-03-11T17:20:18.424Z,99887.84
2019-03-11T17:24:22.640Z,99892.64
2019-03-11T17:28:27.515Z,99897.88
2019-03-11T17:32:33.534Z,99900.38
2019-03-11T17:36:37.695Z,99914.54
2019-03-11T17:40:42.005Z,99926.55
2019-03-11T17:44:48.832Z,99926.48
2019-03-11T17:48:53.661Z,99928.97
2019-03-11T17:53:00.447Z,99936.81
2019-03-11T17:57:07.026Z,99944.66
2019-03-11T18:01:13.483Z,99948.58
2019-03-11T18:05:24.850Z,99962.00
2019-03-11T18:09:51.338Z,99968.84
2019-03-11T18:14:04.556Z,99970.16
2019-03-11T18:18:09.752Z,99984.48
2019-03-11T18:22:15.849Z,99981.71
2019-03-11T18:26:21.732Z,99992.95
2019-03-11T18:30:27.770Z,100000.66
2019-03-11T18:34:34.920Z,100007.89
2019-03-11T18:38:42.941Z,100029.09
2019-03-11T18:42:47.233Z,100027.36
2019-03-11T18:46:53.903Z,100035.72
2019-03-11T18:51:10.445Z,100030.45
2019-03-11T18:55:07.948Z,100036.89
2019-03-11T18:59:12.110Z,100046.81
2019-03-11T19:03:18.807Z,100052.33
2019-03-11T19:07:24.230Z,100046.59
2019-03-11T19:11:30.285Z,100044.80
2019-03-11T19:15:34.775Z,100050.06
2019-03-11T19:19:45.970Z,100051.71
2019-03-11T19:23:46.639Z,100058.11
2019-03-11T19:27:55.316Z,100055.94
2019-03-11T19:32:04.198Z,100053.14
2019-03-11T19:36:24.457Z,100052.08
2019-03-11T19:40:28.939Z,100060.30
2019-03-11T19:49:22.211Z,100069.92
2019-03-11T19:53:29.749Z,100056.23
2019-03-11T19:57:35.132Z,100053.53
2019-03-11T20:01:39.353Z,100048.20
2019-03-11T20:05:47.344Z,100050.17
2019-03-11T20:09:59.034Z,100042.20
2019-03-11T20:14:03.719Z,100042.48
2019-03-11T20:18:08.085Z,100047.16
2019-03-11T20:22:17.500Z,100059.30
2019-03-11T20:26:21.991Z,100064.84
2019-03-11T20:30:28.927Z,100061.21
2019-03-11T20:34:33.838Z,100063.70
2019-03-11T20:38:42.645Z,100070.17
2019-03-11T20:42:48.450Z,100073.60
2019-03-11T20:46:53.327Z,100069.54
2019-03-11T20:50:58.935Z,100080.40
2019-03-11T20:55:06.015Z,100089.91
2019-03-11T20:59:11.578Z,100097.30
2019-03-11T21:03:17.316Z,100118.22
2019-03-11T21:07:23.442Z,100112.13
2019-03-11T21:11:28.869Z,100113.92
2019-03-11T21:15:35.319Z,100113.05
2019-03-11T21:19:40.690Z,100124.63
2019-03-11T21:23:47.010Z,100117.34
2019-03-11T21:27:55.303Z,100119.58
2019-03-11T21:32:00.948Z,100121.26
2019-03-11T21:36:08.753Z,100125.59
2019-03-11T21:40:15.779Z,100126.52
2019-03-11T21:44:23.031Z,100129.56
2019-03-11T21:48:27.388Z,100123.81
2019-03-11T21:52:33.717Z,100127.28
2019-03-11T21:56:38.615Z,100131.70
2019-03-11T22:00:56.224Z,100139.89
2019-03-11T22:05:02.875Z,100130.34
2019-03-11T22:09:09.591Z,100131.20
2019-03-11T22:13:13.740Z,100130.66
2019-03-11T22:17:18.036Z,100121.91
2019-03-11T22:21:24.793Z,100127.18
2019-03-11T22:25:30.543Z,100125.88
2019-03-11T22:29:34.810Z,100124.67
2019-03-11T22:33:40.883Z,100120.38
2019-03-11T22:37:45.830Z,100118.59
2019-03-11T22:41:52.897Z,100117.88
2019-03-11T22:45:59.491Z,100112.73
2019-03-11T22:50:05.007Z,100115.61
2019-03-11T22:54:10.828Z,100113.48
2019-03-11T22:58:16.960Z,100115.31
2019-03-11T23:02:21.371Z,100107.49
2019-03-11T23:06:25.579Z,100105.33
2019-03-11T23:10:32.335Z,100099.67
2019-03-11T23:14:38.245Z,100103.48
2019-03-11T23:18:45.236Z,100105.66
2019-03-11T23:22:50.735Z,100105.76
2019-03-11T23:26:55.072Z,100108.80
2019-03-11T23:30:59.604Z,100110.12
2019-03-11T23:35:03.919Z,100107.98
2019-03-11T23:39:08.562Z,100119.41
2019-03-11T23:43:12.780Z,100121.14
2019-03-11T23:47:17.966Z,100124.13
2019-03-11T23:51:22.274Z,100134.84
2019-03-11T23:55:26.534Z,100127.83
2019-03-11T23:59:31.847Z,100117.88
